Time;durP1;ratioP1;P1;durP2;ratioP2;P2;SDS_P1;SDS_P2;PMS_P1;PMS_P2;Temp;Humidity;BMP_temperature;BMP_pressure;BME280_temperature;BME280_humidity;BME280_pressure;Samples;Min_cycle;Max_cycle;Signal;HPM_P1;HPM_P2
2021/10/04 00:00:01;;;;;;;2.13;1.90;;;15.90;99.90;;;;;;5021677;28;20199;-75
2021/10/04 00:02:26;;;;;;;2.10;1.80;;;15.90;99.90;;;;;;5023150;28;20434;-74
2021/10/04 00:04:52;;;;;;;3.30;1.47;;;15.90;99.90;;;;;;5019108;28;20193;-74
2021/10/04 00:07:18;;;;;;;1.67;1.47;;;15.70;99.90;;;;;;5004181;28;20213;-72
2021/10/04 00:09:44;;;;;;;2.30;1.77;;;15.70;99.90;;;;;;5022024;28;20196;-74
2021/10/04 00:12:10;;;;;;;2.83;1.60;;;15.70;99.90;;;;;;5019306;28;20198;-75
2021/10/04 00:14:36;;;;;;;5.33;1.90;;;15.80;99.90;;;;;;5024487;28;20498;-75
2021/10/04 00:17:02;;;;;;;2.17;1.63;;;15.80;99.90;;;;;;5021832;28;20278;-75
2021/10/04 00:19:27;;;;;;;4.07;2.67;;;15.80;99.90;;;;;;5025340;28;21300;-75
2021/10/04 00:21:53;;;;;;;2.63;1.63;;;15.60;99.90;;;;;;5008895;28;20434;-75
2021/10/04 00:24:19;;;;;;;3.20;1.60;;;15.60;99.90;;;;;;5022363;28;20706;-73
2021/10/04 00:26:45;;;;;;;2.40;1.80;;;15.50;99.90;;;;;;5026487;28;20193;-74
2021/10/04 00:29:10;;;;;;;2.03;1.70;;;15.60;99.90;;;;;;5029763;28;20192;-72
2021/10/04 00:31:37;;;;;;;3.03;1.70;;;15.70;99.90;;;;;;5024128;28;20498;-73
2021/10/04 00:34:03;;;;;;;2.37;1.70;;;15.70;99.90;;;;;;5022112;28;20209;-76
2021/10/04 00:36:29;;;;;;;3.03;1.77;;;15.60;99.90;;;;;;5024970;28;20439;-74
2021/10/04 00:38:55;;;;;;;1.93;1.70;;;15.70;99.90;;;;;;5024392;28;20473;-73
2021/10/04 00:41:21;;;;;;;2.30;1.90;;;15.70;99.90;;;;;;5023072;28;20239;-74
2021/10/04 00:43:46;;;;;;;4.27;1.90;;;15.60;99.90;;;;;;5025516;28;20435;-76
2021/10/04 00:46:12;;;;;;;1.60;1.50;;;15.60;99.90;;;;;;5024773;28;20236;-74
2021/10/04 00:48:38;;;;;;;2.20;1.70;;;15.60;99.90;;;;;;5023699;28;20259;-76
2021/10/04 00:51:04;;;;;;;3.43;1.70;;;15.70;99.90;;;;;;5024689;28;20436;-74
2021/10/04 00:53:29;;;;;;;1.93;1.53;;;15.60;99.90;;;;;;5008459;28;20224;-76
2021/10/04 00:55:55;;;;;;;3.67;1.57;;;15.50;99.90;;;;;;5023869;28;20427;-76
2021/10/04 00:58:21;;;;;;;1.90;1.70;;;15.60;99.90;;;;;;5026093;28;20231;-75
2021/10/04 01:00:46;;;;;;;2.40;1.77;;;15.60;99.90;;;;;;5022515;28;20246;-74
2021/10/04 01:03:15;;;;;;;2.97;2.17;;;15.40;99.90;;;;;;5026918;28;20220;-73
2021/10/04 01:05:41;;;;;;;2.63;1.70;;;15.50;99.90;;;;;;5024626;28;20732;-72
2021/10/04 01:08:07;;;;;;;2.30;1.60;;;15.60;99.90;;;;;;5022184;28;20549;-73
2021/10/04 01:10:32;;;;;;;8.43;1.70;;;15.60;99.90;;;;;;5026317;28;20270;-73
2021/10/04 01:12:58;;;;;;;2.83;1.60;;;15.40;99.90;;;;;;5024732;28;20275;-74
2021/10/04 01:15:24;;;;;;;2.83;1.67;;;15.50;99.90;;;;;;5023490;28;20204;-74
2021/10/04 01:17:50;;;;;;;1.87;1.60;;;15.30;99.90;;;;;;5024018;28;20213;-72
2021/10/04 01:20:26;;;;;;;2.67;1.93;;;15.40;99.90;;;;;;5023636;28;20260;-73
2021/10/04 01:22:54;;;;;;;2.13;1.40;;;15.40;99.90;;;;;;5022616;28;20577;-74
2021/10/04 01:25:20;;;;;;;2.60;1.80;;;15.40;99.90;;;;;;5024578;28;20938;-74
2021/10/04 01:27:48;;;;;;;1.50;1.37;;;15.50;99.90;;;;;;5024216;28;20962;-73
2021/10/04 01:30:16;;;;;;;2.50;1.80;;;15.50;99.90;;;;;;5023928;28;20471;-74
2021/10/04 01:32:42;;;;;;;4.07;1.70;;;15.30;99.90;;;;;;5024848;28;20462;-73
2021/10/04 01:35:09;;;;;;;2.10;1.53;;;15.20;99.90;;;;;;5022989;28;20435;-73
2021/10/04 01:37:35;;;;;;;3.07;1.63;;;15.10;99.90;;;;;;5023752;28;20473;-73
2021/10/04 01:40:00;;;;;;;3.40;2.10;;;15.10;99.90;;;;;;5023155;28;20424;-72
2021/10/04 01:42:26;;;;;;;2.57;2.00;;;15.20;99.90;;;;;;5023312;28;20207;-73
2021/10/04 01:44:52;;;;;;;2.27;1.80;;;15.20;99.90;;;;;;5024036;28;20194;-73
2021/10/04 01:47:17;;;;;;;2.70;1.73;;;15.10;99.90;;;;;;5006021;28;20222;-72
2021/10/04 01:49:44;;;;;;;5.83;1.87;;;15.20;99.90;;;;;;5023430;28;20188;-72
2021/10/04 01:52:11;;;;;;;3.87;1.73;;;15.20;99.90;;;;;;5004003;28;20705;-72
2021/10/04 01:54:38;;;;;;;2.07;1.87;;;15.30;99.90;;;;;;5001016;28;21136;-72
2021/10/04 01:57:03;;;;;;;2.33;1.40;;;15.10;99.90;;;;;;5022088;28;20460;-73
2021/10/04 01:59:29;;;;;;;1.70;1.37;;;15.00;99.90;;;;;;5024822;28;20531;-74
2021/10/04 02:01:55;;;;;;;1.90;1.40;;;14.80;99.90;;;;;;5022144;28;20268;-73
2021/10/04 02:04:20;;;;;;;2.70;2.00;;;14.80;99.90;;;;;;5024016;28;20742;-73
2021/10/04 02:06:49;;;;;;;2.10;1.80;;;14.80;99.90;;;;;;5022780;28;20200;-74
2021/10/04 02:09:16;;;;;;;2.50;1.20;;;14.80;99.90;;;;;;5005953;28;20193;-73
2021/10/04 02:11:42;;;;;;;2.17;1.40;;;14.70;99.90;;;;;;5021117;28;21242;-73
2021/10/04 02:14:07;;;;;;;2.20;1.50;;;14.50;99.90;;;;;;5023469;28;20554;-73
2021/10/04 02:16:33;;;;;;;2.27;1.57;;;14.50;99.90;;;;;;5022570;28;21056;-72
2021/10/04 02:18:59;;;;;;;2.10;1.60;;;14.50;99.90;;;;;;5021627;28;20220;-72
2021/10/04 02:21:24;;;;;;;2.23;1.40;;;14.50;99.90;;;;;;5024800;28;20266;-71
2021/10/04 02:23:50;;;;;;;4.23;1.30;;;14.60;99.90;;;;;;5022277;28;20209;-72
2021/10/04 02:26:15;;;;;;;1.73;1.43;;;14.60;99.90;;;;;;5023613;28;20208;-72
2021/10/04 02:28:41;;;;;;;2.10;1.60;;;14.60;99.90;;;;;;5022122;28;20719;-73
2021/10/04 02:31:07;;;;;;;2.30;1.50;;;14.60;99.90;;;;;;5022003;28;20583;-77
2021/10/04 02:33:32;;;;;;;1.90;1.50;;;14.60;99.90;;;;;;5025336;28;20631;-74
2021/10/04 02:35:58;;;;;;;2.07;1.43;;;14.60;99.90;;;;;;5022233;28;20197;-76
2021/10/04 02:38:24;;;;;;;1.40;1.30;;;14.60;99.90;;;;;;5021760;28;20208;-76
2021/10/04 02:40:50;;;;;;;4.97;1.60;;;14.40;99.90;;;;;;5022670;28;20416;-73
2021/10/04 02:43:18;;;;;;;2.63;1.27;;;14.50;99.90;;;;;;5022354;28;20196;-74
2021/10/04 02:45:46;;;;;;;5.57;1.90;;;14.60;99.90;;;;;;5004843;28;20451;-75
2021/10/04 02:48:12;;;;;;;1.83;1.33;;;14.50;99.90;;;;;;5022654;28;20457;-75
2021/10/04 02:50:37;;;;;;;2.27;1.30;;;14.60;99.90;;;;;;5022502;28;20419;-75
2021/10/04 02:53:03;;;;;;;1.77;1.40;;;14.50;99.90;;;;;;5021710;28;20240;-75
2021/10/04 02:55:29;;;;;;;2.23;1.30;;;14.60;99.90;;;;;;5019449;28;20707;-75
2021/10/04 02:57:54;;;;;;;2.47;1.37;;;14.60;99.90;;;;;;5021288;28;20315;-75
2021/10/04 03:00:20;;;;;;;3.83;2.00;;;14.60;99.90;;;;;;5022420;28;20932;-76
2021/10/04 03:02:46;;;;;;;2.13;1.30;;;14.60;99.90;;;;;;5022385;28;20193;-75
2021/10/04 03:05:12;;;;;;;1.63;1.37;;;14.60;99.90;;;;;;5024521;28;20200;-75
2021/10/04 03:07:38;;;;;;;3.50;1.70;;;14.60;99.90;;;;;;5022238;28;20220;-74
2021/10/04 03:10:04;;;;;;;3.10;1.43;;;14.50;99.90;;;;;;5019113;28;20279;-74
2021/10/04 03:12:30;;;;;;;5.00;1.70;;;14.40;99.90;;;;;;5023284;28;20533;-74
2021/10/04 03:14:58;;;;;;;1.53;1.30;;;14.60;99.90;;;;;;5020305;28;20462;-74
2021/10/04 03:17:23;;;;;;;1.93;1.67;;;14.50;99.90;;;;;;5018432;28;20220;-75
2021/10/04 03:19:49;;;;;;;2.47;1.67;;;14.40;99.90;;;;;;5024185;28;20453;-75
2021/10/04 03:22:14;;;;;;;2.80;1.60;;;14.40;99.90;;;;;;5021402;28;20195;-74
2021/10/04 03:24:40;;;;;;;1.63;1.30;;;14.40;99.90;;;;;;5020331;28;20192;-74
2021/10/04 03:27:06;;;;;;;1.67;1.30;;;14.30;99.90;;;;;;5021136;28;20204;-74
2021/10/04 03:29:31;;;;;;;4.30;2.43;;;14.10;99.90;;;;;;5021975;28;20216;-74
2021/10/04 03:31:57;;;;;;;4.73;1.73;;;14.20;99.90;;;;;;5022014;28;20904;-74
2021/10/04 03:34:23;;;;;;;4.43;1.53;;;14.20;99.90;;;;;;5020279;28;20745;-74
2021/10/04 03:36:48;;;;;;;2.27;1.40;;;14.20;99.90;;;;;;5016966;28;20208;-75
2021/10/04 03:39:14;;;;;;;2.83;1.57;;;14.30;99.90;;;;;;5023256;28;20192;-74
2021/10/04 03:41:40;;;;;;;2.03;1.23;;;14.10;99.90;;;;;;5021643;28;20211;-74
2021/10/04 03:44:06;;;;;;;1.40;1.30;;;14.20;99.90;;;;;;5023060;28;20200;-74
2021/10/04 03:46:32;;;;;;;2.13;1.43;;;14.30;99.90;;;;;;5023967;28;20202;-75
2021/10/04 03:48:58;;;;;;;2.23;1.80;;;14.40;99.90;;;;;;5018486;28;20475;-74
2021/10/04 03:51:26;;;;;;;1.70;1.60;;;14.30;99.90;;;;;;5022993;28;20504;-74
2021/10/04 03:53:52;;;;;;;3.03;1.60;;;14.40;99.90;;;;;;5003484;28;20275;-73
2021/10/04 03:56:17;;;;;;;1.63;1.37;;;14.40;99.90;;;;;;5019695;28;21150;-75
2021/10/04 03:58:43;;;;;;;2.23;1.60;;;14.40;99.90;;;;;;5019907;28;20703;-74
2021/10/04 04:01:10;;;;;;;1.43;1.27;;;14.40;99.90;;;;;;5026567;28;20209;-74
2021/10/04 04:03:36;;;;;;;1.80;1.60;;;14.40;99.90;;;;;;5022626;28;20197;-75
2021/10/04 04:06:02;;;;;;;2.00;1.77;;;14.40;99.90;;;;;;5017088;28;20433;-74
2021/10/04 04:08:29;;;;;;;1.53;1.40;;;14.40;99.90;;;;;;5021902;28;20467;-76
2021/10/04 04:10:55;;;;;;;3.40;1.90;;;14.50;99.90;;;;;;5021968;28;20193;-75
2021/10/04 04:13:21;;;;;;;2.20;1.87;;;14.40;99.90;;;;;;5019045;28;21222;-76
2021/10/04 04:15:47;;;;;;;4.13;2.53;;;14.30;99.90;;;;;;5021937;28;20188;-76
2021/10/04 04:18:12;;;;;;;2.80;2.37;;;14.10;99.90;;;;;;5019118;28;20205;-74
2021/10/04 04:20:38;;;;;;;3.40;2.40;;;14.20;99.90;;;;;;5024677;28;20443;-75
2021/10/04 04:23:04;;;;;;;3.40;2.60;;;14.20;99.90;;;;;;5019848;28;20200;-74
2021/10/04 04:25:29;;;;;;;3.20;2.63;;;14.20;99.90;;;;;;5021379;28;20201;-73
2021/10/04 04:28:01;;;;;;;3.60;2.50;;;14.20;99.90;;;;;;5022848;28;20244;-74
2021/10/04 04:30:28;;;;;;;13.33;3.43;;;14.10;99.90;;;;;;5019196;28;20196;-74
2021/10/04 04:32:53;;;;;;;3.20;2.60;;;14.20;99.90;;;;;;5019419;28;20553;-75
2021/10/04 04:35:20;;;;;;;2.50;2.30;;;14.00;99.90;;;;;;5021229;28;20998;-75
2021/10/04 04:37:45;;;;;;;2.60;2.30;;;14.10;99.90;;;;;;5020480;28;20273;-75
2021/10/04 04:40:15;;;;;;;3.00;2.43;;;13.90;99.90;;;;;;5021622;28;20946;-75
2021/10/04 04:42:42;;;;;;;3.90;2.43;;;13.80;99.90;;;;;;5022861;28;20254;-75
2021/10/04 04:45:10;;;;;;;2.40;2.10;;;13.80;99.90;;;;;;5020461;28;20443;-74
2021/10/04 04:47:37;;;;;;;4.17;2.37;;;13.80;99.90;;;;;;5022501;28;20560;-74
2021/10/04 04:50:07;;;;;;;2.90;2.30;;;13.80;99.90;;;;;;5022566;28;20462;-75
2021/10/04 04:52:33;;;;;;;2.87;1.90;;;13.80;99.90;;;;;;5021591;28;20451;-73
2021/10/04 04:54:59;;;;;;;3.30;2.73;;;13.80;99.90;;;;;;5020803;28;20966;-75
2021/10/04 04:57:25;;;;;;;3.20;2.40;;;13.70;99.90;;;;;;5021664;28;20466;-74
2021/10/04 04:59:51;;;;;;;3.10;2.10;;;13.80;99.90;;;;;;5025500;28;20712;-73
2021/10/04 05:02:18;;;;;;;2.53;2.00;;;13.90;99.90;;;;;;5026873;28;20435;-74
2021/10/04 05:04:44;;;;;;;4.83;2.00;;;13.90;99.90;;;;;;5024308;28;20442;-74
2021/10/04 05:07:10;;;;;;;2.60;1.80;;;14.00;99.90;;;;;;5024641;28;20473;-75
2021/10/04 05:09:35;;;;;;;3.57;2.20;;;14.00;99.90;;;;;;5023791;28;21168;-74
2021/10/04 05:12:02;;;;;;;2.07;1.63;;;14.00;99.90;;;;;;5024432;28;20200;-76
2021/10/04 05:14:27;;;;;;;3.43;1.97;;;14.00;99.90;;;;;;5007515;28;20228;-75
2021/10/04 05:16:53;;;;;;;2.80;1.90;;;14.10;99.90;;;;;;5023565;28;20800;-75
2021/10/04 05:19:18;;;;;;;2.47;1.90;;;14.20;99.90;;;;;;5023317;28;20184;-75
2021/10/04 05:21:44;;;;;;;2.30;1.90;;;14.20;99.90;;;;;;5023906;28;20200;-74
2021/10/04 05:24:10;;;;;;;3.20;1.80;;;14.20;99.90;;;;;;5024198;28;20193;-74
2021/10/04 05:26:35;;;;;;;2.70;1.70;;;14.10;99.90;;;;;;5022791;28;20280;-75
2021/10/04 05:29:01;;;;;;;3.10;1.57;;;14.00;99.90;;;;;;5024579;28;20272;-75
2021/10/04 05:31:27;;;;;;;5.57;1.60;;;13.90;99.90;;;;;;5022540;28;20674;-74
2021/10/04 05:33:52;;;;;;;2.50;1.50;;;13.90;99.90;;;;;;5023668;28;20294;-74
2021/10/04 05:36:18;;;;;;;2.03;1.67;;;13.90;99.90;;;;;;5021838;28;20271;-74
2021/10/04 05:38:46;;;;;;;2.10;1.60;;;13.90;99.90;;;;;;5025769;28;20220;-73
2021/10/04 05:41:12;;;;;;;3.57;1.87;;;13.90;99.90;;;;;;5021986;28;20582;-73
2021/10/04 05:43:38;;;;;;;3.50;1.77;;;13.90;99.90;;;;;;5021170;28;20808;-74
2021/10/04 05:46:04;;;;;;;1.70;1.30;;;13.90;99.90;;;;;;5022056;28;20439;-74
2021/10/04 05:48:29;;;;;;;2.30;1.70;;;14.00;99.90;;;;;;5022570;28;20212;-74
2021/10/04 05:50:55;;;;;;;2.47;1.77;;;14.00;99.90;;;;;;5024199;28;20200;-74
2021/10/04 05:53:21;;;;;;;4.70;1.40;;;13.90;99.90;;;;;;5020933;28;20220;-74
2021/10/04 05:55:48;;;;;;;3.13;1.50;;;13.90;99.90;;;;;;5024334;28;20271;-75
2021/10/04 05:58:15;;;;;;;1.70;1.43;;;13.80;99.90;;;;;;5022953;28;20201;-75
2021/10/04 06:00:41;;;;;;;5.20;1.70;;;13.90;99.90;;;;;;5020670;28;21046;-74
2021/10/04 06:03:07;;;;;;;5.77;1.43;;;13.80;99.90;;;;;;5025314;28;20910;-75
2021/10/04 06:05:33;;;;;;;1.60;1.30;;;13.90;99.90;;;;;;5023261;28;20542;-73
2021/10/04 06:07:59;;;;;;;3.63;1.43;;;14.00;99.90;;;;;;5022202;28;20223;-74
2021/10/04 06:10:26;;;;;;;1.50;1.20;;;13.90;99.90;;;;;;5021941;28;20951;-74
2021/10/04 06:12:51;;;;;;;1.70;1.50;;;14.00;99.90;;;;;;5021086;28;20470;-74
2021/10/04 06:15:17;;;;;;;1.60;1.50;;;14.00;99.90;;;;;;5022258;28;20250;-74
2021/10/04 06:17:43;;;;;;;1.80;1.60;;;14.00;99.90;;;;;;5024690;28;20211;-76
2021/10/04 06:20:10;;;;;;;1.60;1.27;;;14.00;99.90;;;;;;5030520;28;20207;-70
2021/10/04 06:22:38;;;;;;;2.20;1.70;;;14.00;99.90;;;;;;5024804;28;20447;-70
2021/10/04 06:25:06;;;;;;;2.40;1.60;;;14.00;99.90;;;;;;5028653;28;20460;-70
2021/10/04 06:27:31;;;;;;;2.13;1.50;;;14.10;99.90;;;;;;5024724;28;20459;-70
2021/10/04 06:29:57;;;;;;;1.67;1.33;;;14.00;99.90;;;;;;5032702;28;20439;-70
2021/10/04 06:32:23;;;;;;;2.17;1.47;;;13.90;99.90;;;;;;5034838;28;20223;-72
2021/10/04 06:34:48;;;;;;;2.10;1.77;;;14.00;99.90;;;;;;5025512;28;20577;-73
2021/10/04 06:37:14;;;;;;;1.60;1.40;;;14.10;99.90;;;;;;5025693;28;20257;-71
2021/10/04 06:39:40;;;;;;;2.40;1.70;;;14.20;99.90;;;;;;5022737;28;20480;-71
2021/10/04 06:42:05;;;;;;;3.30;1.60;;;14.10;99.90;;;;;;5023455;28;20211;-72
2021/10/04 06:44:31;;;;;;;3.20;1.80;;;14.10;99.90;;;;;;5022780;28;20202;-73
2021/10/04 06:46:57;;;;;;;2.03;1.70;;;14.20;99.90;;;;;;5020992;28;20423;-70
2021/10/04 06:49:22;;;;;;;2.03;1.60;;;14.10;99.90;;;;;;5019712;28;20196;-72
2021/10/04 06:51:48;;;;;;;3.30;1.60;;;14.10;99.90;;;;;;5020562;28;20200;-70
2021/10/04 06:54:14;;;;;;;3.23;1.87;;;14.00;99.90;;;;;;5020437;28;20231;-72
2021/10/04 06:56:39;;;;;;;1.70;1.33;;;14.00;99.90;;;;;;5018703;28;20203;-74
2021/10/04 06:59:06;;;;;;;1.60;1.30;;;14.00;99.90;;;;;;5023816;28;20204;-73
2021/10/04 07:01:32;;;;;;;2.30;1.80;;;14.00;99.90;;;;;;5020549;28;20193;-72
2021/10/04 07:04:00;;;;;;;2.60;2.03;;;14.00;99.90;;;;;;5006183;28;20445;-74
2021/10/04 07:06:25;;;;;;;3.03;1.90;;;14.00;99.90;;;;;;5021172;28;20509;-72
2021/10/04 07:08:51;;;;;;;1.90;1.37;;;14.00;99.90;;;;;;5020430;28;20487;-73
2021/10/04 07:11:17;;;;;;;2.07;1.83;;;13.90;99.90;;;;;;5023060;28;20188;-73
2021/10/04 07:13:42;;;;;;;4.77;2.63;;;13.90;99.90;;;;;;5020455;28;20689;-73
2021/10/04 07:16:12;;;;;;;3.03;1.90;;;13.90;99.90;;;;;;5025329;28;20881;-73
2021/10/04 07:18:37;;;;;;;2.00;1.70;;;13.90;99.90;;;;;;5020017;28;20204;-73
2021/10/04 07:21:03;;;;;;;3.60;2.20;;;13.90;99.90;;;;;;5019226;28;20808;-74
2021/10/04 07:23:29;;;;;;;4.27;2.13;;;13.90;99.90;;;;;;5024401;28;20456;-70
2021/10/04 07:25:55;;;;;;;2.80;1.60;;;13.90;99.90;;;;;;5019963;28;20184;-73
2021/10/04 07:28:20;;;;;;;2.23;1.73;;;13.90;99.90;;;;;;5020794;28;20888;-72
2021/10/04 07:30:48;;;;;;;2.10;1.90;;;13.80;99.90;;;;;;5021088;28;20188;-72
2021/10/04 07:33:14;;;;;;;2.20;1.90;;;13.80;99.90;;;;;;5020461;28;20227;-71
2021/10/04 07:35:40;;;;;;;2.20;2.00;;;13.80;99.90;;;;;;5021096;28;20436;-70
2021/10/04 07:38:06;;;;;;;3.63;2.10;;;13.90;99.90;;;;;;5023289;28;20450;-72
2021/10/04 07:40:31;;;;;;;3.90;2.23;;;13.90;99.90;;;;;;5019596;28;20220;-72
2021/10/04 07:42:57;;;;;;;2.13;1.80;;;13.80;99.90;;;;;;5005140;28;20728;-72
2021/10/04 07:45:23;;;;;;;2.80;1.67;;;13.80;99.90;;;;;;5023264;28;20211;-72
2021/10/04 07:47:51;;;;;;;2.60;2.10;;;13.80;99.90;;;;;;5020015;28;20574;-72
2021/10/04 07:50:17;;;;;;;2.83;2.10;;;13.90;99.90;;;;;;5020820;28;20434;-72
2021/10/04 07:52:44;;;;;;;2.37;2.00;;;13.90;99.90;;;;;;5017591;28;20435;-72
2021/10/04 07:55:10;;;;;;;2.27;2.00;;;13.90;99.90;;;;;;5020870;28;20451;-73
2021/10/04 07:57:36;;;;;;;2.53;1.73;;;13.90;99.90;;;;;;5006285;28;20473;-72
2021/10/04 08:00:04;;;;;;;2.27;2.03;;;13.90;99.90;;;;;;5020044;28;20508;-72
2021/10/04 08:02:30;;;;;;;2.13;1.93;;;13.80;99.90;;;;;;5022391;28;20200;-72
2021/10/04 08:04:56;;;;;;;2.10;1.60;;;14.00;99.90;;;;;;5020478;28;20455;-72
2021/10/04 08:07:21;;;;;;;3.23;1.60;;;14.00;99.90;;;;;;5018855;28;20450;-72
2021/10/04 08:09:47;;;;;;;2.70;1.60;;;13.90;99.90;;;;;;5019677;28;20580;-72
2021/10/04 08:12:12;;;;;;;2.67;1.90;;;13.90;99.90;;;;;;5017911;28;20182;-72
2021/10/04 08:14:38;;;;;;;1.97;1.43;;;13.80;99.90;;;;;;5020991;28;20273;-71
2021/10/04 08:17:04;;;;;;;4.60;2.80;;;13.80;99.90;;;;;;5020189;28;20209;-72
2021/10/04 08:19:30;;;;;;;1.93;1.73;;;13.90;99.90;;;;;;5017108;28;20229;-72
2021/10/04 08:21:56;;;;;;;1.87;1.67;;;14.10;99.90;;;;;;5016801;28;20188;-72
2021/10/04 08:24:21;;;;;;;2.57;1.40;;;14.20;99.90;;;;;;5017577;28;20439;-73
2021/10/04 08:26:47;;;;;;;2.23;1.60;;;14.20;99.90;;;;;;5019752;28;20196;-72
2021/10/04 08:29:14;;;;;;;2.90;1.60;;;14.20;99.90;;;;;;5019428;28;20216;-72
2021/10/04 08:31:39;;;;;;;1.40;1.30;;;14.10;99.90;;;;;;5000859;28;20473;-73
2021/10/04 08:34:06;;;;;;;2.43;1.60;;;14.10;99.90;;;;;;5023004;28;20517;-72
2021/10/04 08:36:33;;;;;;;3.03;2.00;;;14.20;99.90;;;;;;5020315;28;20188;-72
2021/10/04 08:38:59;;;;;;;1.83;1.57;;;14.10;99.90;;;;;;5022370;28;20467;-72
2021/10/04 08:41:25;;;;;;;2.67;1.70;;;14.00;99.90;;;;;;5026097;28;20442;-71
2021/10/04 08:43:54;;;;;;;2.80;1.57;;;14.10;99.90;;;;;;5023041;28;20427;-71
2021/10/04 08:46:21;;;;;;;1.97;1.47;;;14.10;99.90;;;;;;5021974;28;20621;-70
2021/10/04 08:48:48;;;;;;;2.73;1.80;;;14.00;99.90;;;;;;5023101;28;20442;-70
2021/10/04 08:51:14;;;;;;;2.17;1.63;;;13.90;99.90;;;;;;5020183;28;20958;-70
2021/10/04 08:53:40;;;;;;;1.80;1.40;;;14.00;99.90;;;;;;5023423;28;20524;-69
2021/10/04 08:56:07;;;;;;;3.30;2.00;;;14.10;99.90;;;;;;5024419;28;20189;-70
2021/10/04 08:58:35;;;;;;;4.00;2.00;;;14.20;99.90;;;;;;5021139;28;20530;-69
2021/10/04 09:01:04;;;;;;;2.53;1.63;;;14.10;99.90;;;;;;5023747;28;20427;-70
2021/10/04 09:03:51;;;;;;;3.00;1.70;;;14.30;99.90;;;;;;5024034;28;20439;-70
2021/10/04 09:06:24;;;;;;;3.47;1.93;;;14.40;99.90;;;;;;5022838;28;20439;-70
2021/10/04 09:08:54;;;;;;;1.80;1.50;;;14.20;99.90;;;;;;5022108;28;20455;-69
2021/10/04 09:11:29;;;;;;;2.30;2.10;;;14.20;99.90;;;;;;5021083;28;20449;-70
2021/10/04 09:13:59;;;;;;;1.60;1.40;;;14.20;99.90;;;;;;5023138;28;20557;-71
2021/10/04 09:16:25;;;;;;;2.03;1.77;;;14.30;99.90;;;;;;5022150;28;20597;-71
2021/10/04 09:18:54;;;;;;;2.27;1.70;;;14.30;99.90;;;;;;5023918;28;20549;-71
2021/10/04 09:21:19;;;;;;;2.17;1.60;;;14.50;99.90;;;;;;5023727;28;20181;-72
2021/10/04 09:23:56;;;;;;;1.87;1.60;;;14.30;99.90;;;;;;5025249;28;20431;-71
2021/10/04 09:26:24;;;;;;;1.80;1.50;;;14.30;99.90;;;;;;5023327;28;20640;-68
2021/10/04 09:29:15;;;;;;;1.73;1.30;;;14.40;99.90;;;;;;5021696;28;20549;-72
2021/10/04 09:31:44;;;;;;;1.77;1.50;;;14.60;99.90;;;;;;5021014;28;20514;-71
2021/10/04 09:34:14;;;;;;;2.07;1.67;;;14.70;99.90;;;;;;5022366;28;20466;-71
2021/10/04 09:36:46;;;;;;;2.50;1.50;;;14.60;99.90;;;;;;5024919;28;20446;-71
2021/10/04 09:39:19;;;;;;;1.90;1.57;;;14.60;99.90;;;;;;5026325;28;20447;-71
2021/10/04 09:42:17;;;;;;;1.60;1.50;;;14.60;99.90;;;;;;5024141;28;20432;-70
2021/10/04 09:44:57;;;;;;;2.33;1.57;;;14.60;99.90;;;;;;5004784;28;20982;-69
2021/10/04 09:47:38;;;;;;;3.00;1.57;;;14.60;99.90;;;;;;5024676;28;20573;-69
2021/10/04 09:50:06;;;;;;;1.80;1.33;;;14.70;99.90;;;;;;5025787;28;20436;-69
2021/10/04 09:52:49;;;;;;;2.37;2.07;;;14.70;99.90;;;;;;5022968;28;20431;-72
2021/10/04 09:55:21;;;;;;;2.50;1.97;;;14.70;99.90;;;;;;5022310;28;20674;-72
2021/10/04 09:57:56;;;;;;;2.67;1.60;;;14.70;99.90;;;;;;5024756;28;20868;-72
2021/10/04 10:00:22;;;;;;;2.27;1.47;;;14.80;99.90;;;;;;5024049;28;20434;-71
2021/10/04 10:02:54;;;;;;;3.13;1.57;;;14.80;99.90;;;;;;5022194;28;20431;-72
2021/10/04 10:05:25;;;;;;;1.70;1.50;;;14.80;99.90;;;;;;5023008;28;20189;-71
2021/10/04 10:07:50;;;;;;;1.43;1.20;;;14.80;99.90;;;;;;5024037;28;20995;-70
2021/10/04 10:10:17;;;;;;;2.80;1.20;;;15.00;99.90;;;;;;5021743;28;20435;-71
2021/10/04 10:12:43;;;;;;;2.17;1.37;;;15.00;99.90;;;;;;5024081;28;20231;-71
2021/10/04 10:15:17;;;;;;;2.00;1.53;;;15.00;99.90;;;;;;5021504;28;20595;-72
2021/10/04 10:17:46;;;;;;;1.60;1.30;;;15.10;99.90;;;;;;5022409;28;20997;-71
2021/10/04 10:20:16;;;;;;;1.40;1.17;;;15.10;99.90;;;;;;5024154;28;20427;-75
2021/10/04 10:22:50;;;;;;;1.50;1.30;;;15.20;99.90;;;;;;5022180;28;20431;-74
2021/10/04 10:25:25;;;;;;;2.03;1.37;;;15.40;99.90;;;;;;5023096;28;20439;-71
2021/10/04 10:27:51;;;;;;;1.90;1.40;;;15.40;99.90;;;;;;5022166;28;20489;-70
2021/10/04 10:30:19;;;;;;;2.73;2.30;;;15.40;99.90;;;;;;5021955;28;20486;-70
2021/10/04 10:32:45;;;;;;;2.00;1.20;;;15.30;99.90;;;;;;5023318;28;20188;-71
2021/10/04 10:35:11;;;;;;;1.97;1.70;;;15.40;99.90;;;;;;5022195;28;20431;-71
2021/10/04 10:37:51;;;;;;;3.10;1.70;;;15.30;99.90;;;;;;5023100;28;20208;-71
2021/10/04 10:40:23;;;;;;;2.23;1.57;;;15.20;99.90;;;;;;5020362;28;20566;-70
2021/10/04 10:43:09;;;;;;;2.03;1.50;;;15.20;99.90;;;;;;5022099;28;20434;-72
2021/10/04 10:45:40;;;;;;;1.50;1.30;;;15.10;99.90;;;;;;5020544;28;20545;-70
2021/10/04 10:48:07;;;;;;;4.40;1.40;;;15.20;99.90;;;;;;5022718;28;20447;-71
2021/10/04 10:50:34;;;;;;;1.87;1.70;;;15.20;99.90;;;;;;5022637;28;21086;-69
2021/10/04 10:52:59;;;;;;;1.67;1.57;;;15.30;99.90;;;;;;5019529;28;20487;-71
2021/10/04 10:55:55;;;;;;;1.40;1.30;;;15.30;99.90;;;;;;5021398;28;20780;-71
2021/10/04 10:58:24;;;;;;;1.90;1.60;;;15.30;99.90;;;;;;5010465;28;20220;-70
2021/10/04 11:00:50;;;;;;;2.23;1.70;;;15.40;99.90;;;;;;4997401;28;20502;-71
2021/10/04 11:03:20;;;;;;;2.20;1.70;;;15.50;99.90;;;;;;5010812;28;20443;-71
2021/10/04 11:05:57;;;;;;;3.50;1.70;;;15.30;99.90;;;;;;5018421;28;21179;-70
2021/10/04 11:08:43;;;;;;;2.50;1.70;;;15.30;99.90;;;;;;5016677;28;20470;-71
2021/10/04 11:11:16;;;;;;;3.10;2.07;;;15.50;99.90;;;;;;5007500;28;20534;-70
2021/10/04 11:13:59;;;;;;;1.80;1.50;;;15.40;99.90;;;;;;5019142;28;20460;-71
2021/10/04 11:16:24;;;;;;;1.80;1.40;;;15.50;99.90;;;;;;5016431;28;20566;-70
2021/10/04 11:18:51;;;;;;;2.43;1.60;;;15.60;99.90;;;;;;5018346;28;20455;-71
2021/10/04 11:21:26;;;;;;;3.20;1.57;;;15.60;99.90;;;;;;5018916;28;20197;-71
2021/10/04 11:23:55;;;;;;;1.97;1.50;;;15.60;99.90;;;;;;5011833;28;20446;-72
2021/10/04 11:26:23;;;;;;;1.63;1.53;;;15.50;99.90;;;;;;5016046;28;20467;-70
2021/10/04 11:28:59;;;;;;;3.50;1.80;;;15.50;99.90;;;;;;5003421;28;20552;-70
2021/10/04 11:31:31;;;;;;;2.10;1.90;;;15.50;99.90;;;;;;5019160;28;20965;-70
2021/10/04 11:34:07;;;;;;;2.60;2.37;;;15.50;99.90;;;;;;5017102;28;20841;-71
2021/10/04 11:36:42;;;;;;;3.00;2.43;;;15.50;99.90;;;;;;5001063;28;20518;-70
2021/10/04 11:39:18;;;;;;;3.57;2.30;;;15.80;99.90;;;;;;5017391;28;20469;-70
2021/10/04 11:41:50;;;;;;;2.50;2.03;;;15.70;99.90;;;;;;5017750;28;20423;-70
2021/10/04 11:44:25;;;;;;;2.10;1.87;;;15.80;99.90;;;;;;5018507;28;20434;-70
2021/10/04 11:46:54;;;;;;;3.10;1.50;;;15.90;99.90;;;;;;5015347;28;20508;-70
2021/10/04 11:49:22;;;;;;;2.90;1.70;;;15.80;99.90;;;;;;5016987;28;20439;-70
2021/10/04 11:51:50;;;;;;;2.30;1.60;;;15.70;99.90;;;;;;5018907;28;20444;-70
2021/10/04 11:54:42;;;;;;;2.00;1.80;;;15.70;99.90;;;;;;5018963;28;20471;-70
2021/10/04 11:57:13;;;;;;;2.20;1.60;;;15.70;99.90;;;;;;5015298;28;20990;-70
2021/10/04 12:00:01;;;;;;;2.00;1.50;;;15.70;99.90;;;;;;5018567;28;20427;-71
2021/10/04 12:02:32;;;;;;;2.03;1.60;;;15.70;99.90;;;;;;5015598;28;20438;-72
2021/10/04 12:05:12;;;;;;;1.53;1.40;;;15.80;99.90;;;;;;5017220;28;20904;-71
2021/10/04 12:07:59;;;;;;;2.50;1.60;;;15.70;99.90;;;;;;5018929;28;20462;-71
2021/10/04 12:10:42;;;;;;;2.17;1.83;;;15.90;99.90;;;;;;5009753;28;20537;-71
2021/10/04 12:13:16;;;;;;;3.87;1.80;;;15.90;99.90;;;;;;5019111;28;20875;-71
2021/10/04 12:15:42;;;;;;;1.90;1.70;;;15.80;99.90;;;;;;5019497;28;20951;-72
2021/10/04 12:18:16;;;;;;;2.30;2.10;;;15.80;99.90;;;;;;5025691;28;20466;-71
2021/10/04 12:20:42;;;;;;;3.67;2.40;;;15.90;99.90;;;;;;5028171;28;20989;-70
2021/10/04 12:23:16;;;;;;;9.20;2.23;;;16.00;99.90;;;;;;5020899;28;20509;-69
2021/10/04 12:25:43;;;;;;;2.03;1.60;;;16.10;99.90;;;;;;5020589;28;20489;-69
2021/10/04 12:28:10;;;;;;;1.80;1.50;;;16.00;99.90;;;;;;5021082;28;20469;-69
2021/10/04 12:30:49;;;;;;;2.47;1.80;;;15.80;99.90;;;;;;5021279;28;20436;-71
2021/10/04 12:33:16;;;;;;;5.63;2.10;;;15.80;99.90;;;;;;5018892;28;20462;-70
2021/10/04 12:35:42;;;;;;;1.90;1.67;;;15.70;99.90;;;;;;5017147;28;20442;-72
2021/10/04 12:38:10;;;;;;;4.13;1.40;;;15.80;99.90;;;;;;5026805;28;20450;-71
2021/10/04 12:41:03;;;;;;;5.33;1.63;;;15.80;99.90;;;;;;5021192;28;20601;-72
2021/10/04 12:43:30;;;;;;;1.90;1.60;;;15.90;99.90;;;;;;5017698;28;20442;-71
2021/10/04 12:46:10;;;;;;;10.30;2.10;;;15.90;99.90;;;;;;5024067;28;21016;-71
2021/10/04 12:48:47;;;;;;;2.47;1.70;;;15.80;99.90;;;;;;5023619;28;20553;-71
2021/10/04 12:51:18;;;;;;;2.17;1.87;;;15.80;99.90;;;;;;5022899;28;20966;-71